Time;durP1;ratioP1;P1;durP2;ratioP2;P2;SDS_P1;SDS_P2;PMS_P1;PMS_P2;Temp;Humidity;BMP_temperature;BMP_pressure;BME280_temperature;BME280_humidity;BME280_pressure;Samples;Min_cycle;Max_cycle;Signal;HPM_P1;HPM_P2
2023/12/29 00:02:16;;;;;;;2.25;1.33;;;13.40;80.40;;;;;;5032242;28;20116;-80
2023/12/29 00:04:42;;;;;;;2.78;1.30;;;13.30;80.40;;;;;;5042982;28;20116;-79
2023/12/29 00:07:08;;;;;;;2.67;1.20;;;13.30;80.40;;;;;;5042849;28;20029;-79
2023/12/29 00:09:40;;;;;;;1.85;1.10;;;13.40;80.40;;;;;;5025673;28;20045;-79
2023/12/29 00:12:07;;;;;;;2.78;1.30;;;13.40;80.40;;;;;;5029715;28;20036;-79
2023/12/29 00:14:33;;;;;;;2.67;1.40;;;13.40;80.40;;;;;;5032609;28;20030;-79
2023/12/29 00:16:59;;;;;;;2.20;1.20;;;13.40;80.40;;;;;;5023434;28;20049;-79
2023/12/29 00:19:25;;;;;;;2.13;1.30;;;13.40;80.40;;;;;;5043860;28;20044;-79
2023/12/29 00:21:51;;;;;;;2.75;1.30;;;13.40;80.40;;;;;;5011006;28;20033;-79
2023/12/29 00:24:17;;;;;;;2.80;1.50;;;13.40;80.40;;;;;;5042584;28;20720;-80
2023/12/29 00:26:43;;;;;;;2.42;1.20;;;13.40;80.40;;;;;;5021058;28;20046;-79
2023/12/29 00:29:08;;;;;;;3.00;1.33;;;13.40;80.40;;;;;;5015323;28;20432;-79
2023/12/29 00:31:34;;;;;;;2.28;1.20;;;13.40;80.40;;;;;;5024894;28;20103;-79
2023/12/29 00:34:00;;;;;;;2.08;1.10;;;13.40;80.40;;;;;;5026771;28;20030;-79
2023/12/29 00:36:26;;;;;;;2.17;1.63;;;13.40;80.40;;;;;;5017527;28;20092;-79
2023/12/29 00:38:51;;;;;;;3.47;1.50;;;13.40;80.40;;;;;;5022559;28;20040;-79
2023/12/29 00:41:17;;;;;;;1.23;1.10;;;13.40;80.40;;;;;;5026342;28;20061;-79
2023/12/29 00:43:43;;;;;;;1.20;1.10;;;13.40;80.40;;;;;;5030033;28;20026;-79
2023/12/29 00:46:09;;;;;;;2.55;1.30;;;13.40;80.40;;;;;;5020491;28;20041;-79
2023/12/29 00:48:35;;;;;;;1.25;1.00;;;13.40;80.40;;;;;;5020282;28;20167;-79
2023/12/29 00:51:02;;;;;;;3.40;1.33;;;13.40;80.40;;;;;;5043116;28;20021;-79
2023/12/29 00:53:32;;;;;;;2.75;1.58;;;13.40;80.50;;;;;;5021918;28;20057;-80
2023/12/29 00:55:59;;;;;;;2.75;1.27;;;13.40;80.40;;;;;;5028293;28;20024;-79
2023/12/29 00:58:25;;;;;;;1.85;1.27;;;13.40;80.40;;;;;;5022306;28;20183;-79
2023/12/29 01:00:50;;;;;;;1.25;1.05;;;13.40;80.50;;;;;;5011228;28;20495;-79
2023/12/29 01:03:16;;;;;;;2.55;1.25;;;13.40;80.40;;;;;;5024358;28;20029;-80
2023/12/29 01:05:42;;;;;;;3.55;1.42;;;13.40;80.40;;;;;;5025134;28;20470;-81
2023/12/29 01:08:08;;;;;;;2.70;1.35;;;13.40;80.40;;;;;;5028541;28;20116;-79
2023/12/29 01:10:33;;;;;;;1.65;1.30;;;13.40;80.50;;;;;;5012847;28;20726;-79
2023/12/29 01:12:59;;;;;;;2.50;1.23;;;13.40;80.50;;;;;;5031589;28;20027;-79
2023/12/29 01:15:25;;;;;;;2.65;1.33;;;13.40;80.50;;;;;;5041770;28;20028;-79
2023/12/29 01:17:51;;;;;;;3.35;1.38;;;13.40;80.40;;;;;;5021369;28;20026;-79
2023/12/29 01:20:17;;;;;;;3.00;1.40;;;13.40;80.40;;;;;;5027320;28;20032;-79
2023/12/29 01:22:43;;;;;;;2.72;1.13;;;13.40;80.40;;;;;;5022944;28;20037;-79
2023/12/29 01:25:09;;;;;;;3.05;1.35;;;13.40;80.40;;;;;;5014929;28;20513;-79
2023/12/29 01:27:35;;;;;;;3.40;1.30;;;13.40;80.40;;;;;;5020774;28;20048;-80
2023/12/29 01:30:00;;;;;;;3.58;1.40;;;13.40;80.50;;;;;;5016024;28;20459;-78
2023/12/29 01:32:26;;;;;;;2.08;1.20;;;13.40;80.50;;;;;;5028900;28;20496;-79
2023/12/29 01:34:53;;;;;;;3.85;1.58;;;13.40;80.50;;;;;;5030226;28;20480;-79
2023/12/29 01:37:19;;;;;;;3.45;1.10;;;13.40;80.40;;;;;;5030095;28;20112;-80
2023/12/29 01:39:44;;;;;;;3.13;1.40;;;13.40;80.40;;;;;;5026657;28;20063;-79
2023/12/29 01:42:13;;;;;;;3.33;1.35;;;13.40;80.40;;;;;;4991718;28;20493;-80
2023/12/29 01:44:39;;;;;;;2.05;1.23;;;13.40;80.50;;;;;;5030871;28;20021;-78
2023/12/29 01:47:15;;;;;;;2.05;1.20;;;13.40;80.50;;;;;;5026812;28;20112;-79
2023/12/29 01:49:43;;;;;;;1.73;1.20;;;13.40;80.50;;;;;;5039359;28;20356;-80
2023/12/29 01:52:09;;;;;;;2.10;1.30;;;13.40;80.50;;;;;;5028571;28;20563;-79
2023/12/29 01:54:40;;;;;;;2.50;1.20;;;13.40;80.50;;;;;;5005690;28;20060;-79
2023/12/29 01:57:08;;;;;;;1.63;1.10;;;13.40;80.50;;;;;;5028437;28;20025;-79
2023/12/29 01:59:35;;;;;;;1.67;1.23;;;13.40;80.50;;;;;;5028351;28;20032;-79
2023/12/29 02:02:02;;;;;;;2.33;1.52;;;13.40;80.40;;;;;;5045671;28;20032;-80
2023/12/29 02:04:28;;;;;;;2.47;1.33;;;13.40;80.50;;;;;;5033579;28;20037;-81
2023/12/29 02:06:55;;;;;;;3.47;1.65;;;13.30;80.40;;;;;;5041996;28;20051;-80
2023/12/29 02:09:21;;;;;;;1.10;1.00;;;13.40;80.50;;;;;;5039167;28;20029;-79
2023/12/29 02:11:48;;;;;;;5.13;1.52;;;13.40;80.50;;;;;;5039571;28;20432;-80
2023/12/29 02:14:15;;;;;;;3.95;1.40;;;13.40;80.50;;;;;;5025972;28;20197;-79
2023/12/29 02:16:49;;;;;;;2.90;1.30;;;13.40;80.50;;;;;;5013515;28;20040;-79
2023/12/29 02:19:40;;;;;;;3.08;1.40;;;13.40;80.50;;;;;;5040478;28;20033;-79
2023/12/29 02:22:08;;;;;;;2.50;1.23;;;13.40;80.50;;;;;;5047168;28;20032;-79
2023/12/29 02:24:38;;;;;;;2.65;1.30;;;13.40;80.50;;;;;;5023512;28;20128;-80
2023/12/29 02:27:29;;;;;;;3.20;1.48;;;13.40;80.50;;;;;;5028652;28;20025;-79
2023/12/29 02:30:04;;;;;;;3.17;1.25;;;13.40;80.50;;;;;;5041751;28;20033;-79
2023/12/29 02:32:30;;;;;;;1.83;1.20;;;13.40;80.50;;;;;;5039461;28;20614;-79
2023/12/29 02:34:57;;;;;;;2.30;1.30;;;13.40;80.50;;;;;;5030706;28;20025;-78
2023/12/29 02:37:24;;;;;;;2.38;1.38;;;13.40;80.50;;;;;;5040695;28;20048;-80
2023/12/29 02:39:50;;;;;;;2.55;1.30;;;13.30;80.50;;;;;;5006784;28;20104;-80
2023/12/29 02:42:16;;;;;;;2.50;1.30;;;13.30;80.50;;;;;;5026285;28;20124;-79
2023/12/29 02:44:42;;;;;;;2.45;1.20;;;13.40;80.50;;;;;;5039411;28;20131;-79
2023/12/29 02:47:07;;;;;;;1.50;1.30;;;13.30;80.50;;;;;;5040168;28;20363;-79
2023/12/29 02:49:33;;;;;;;1.20;1.10;;;13.30;80.50;;;;;;5040305;28;20397;-79
2023/12/29 02:51:59;;;;;;;3.25;1.52;;;13.30;80.50;;;;;;5004177;28;20029;-79
2023/12/29 02:54:25;;;;;;;1.70;1.17;;;13.30;80.50;;;;;;5024055;28;20033;-79
2023/12/29 02:56:51;;;;;;;1.42;1.33;;;13.40;80.50;;;;;;5012244;28;20037;-79
2023/12/29 02:59:16;;;;;;;1.23;1.13;;;13.30;80.50;;;;;;5023008;28;20061;-79
2023/12/29 03:01:42;;;;;;;1.88;1.30;;;13.30;80.50;;;;;;5028449;28;20141;-79
2023/12/29 03:04:08;;;;;;;2.05;1.30;;;13.30;80.50;;;;;;5022069;28;20040;-79
2023/12/29 03:06:34;;;;;;;3.60;1.42;;;13.30;80.50;;;;;;5006821;28;20041;-79
2023/12/29 03:09:00;;;;;;;1.92;1.30;;;13.40;80.60;;;;;;5028407;28;20477;-79
2023/12/29 03:11:26;;;;;;;2.05;1.20;;;13.30;80.50;;;;;;5026422;28;20075;-79
2023/12/29 03:13:51;;;;;;;2.33;1.30;;;13.30;80.50;;;;;;5040556;28;20070;-79
2023/12/29 03:16:18;;;;;;;2.88;1.45;;;13.40;80.60;;;;;;5006254;28;20038;-79
2023/12/29 03:18:44;;;;;;;1.92;1.00;;;13.30;80.50;;;;;;5027918;28;20060;-79
2023/12/29 03:21:10;;;;;;;2.58;1.33;;;13.30;80.60;;;;;;5030223;28;20029;-79
2023/12/29 03:23:36;;;;;;;2.28;1.30;;;13.40;80.60;;;;;;5027339;28;20033;-79
2023/12/29 03:26:02;;;;;;;3.25;1.27;;;13.30;80.50;;;;;;4996945;28;20500;-79
2023/12/29 03:28:28;;;;;;;1.88;1.15;;;13.30;80.60;;;;;;5023690;28;20116;-79
2023/12/29 03:30:54;;;;;;;1.90;1.27;;;13.30;80.60;;;;;;5046337;28;20056;-79
2023/12/29 03:33:19;;;;;;;2.30;1.13;;;13.30;80.70;;;;;;5006860;28;20385;-79
2023/12/29 03:35:45;;;;;;;1.85;1.35;;;13.30;80.60;;;;;;5010430;28;20564;-79
2023/12/29 03:38:11;;;;;;;2.58;1.30;;;13.30;80.60;;;;;;5017282;28;20055;-79
2023/12/29 03:40:36;;;;;;;1.33;1.20;;;13.30;80.60;;;;;;5030543;28;20040;-79
2023/12/29 03:43:03;;;;;;;2.58;1.10;;;13.30;80.60;;;;;;5041679;28;20048;-78
2023/12/29 03:45:28;;;;;;;3.25;1.38;;;13.30;80.60;;;;;;5030287;28;20021;-80
2023/12/29 03:47:54;;;;;;;1.50;1.20;;;13.30;80.60;;;;;;5024503;28;20037;-79
2023/12/29 03:50:20;;;;;;;2.15;1.30;;;13.30;80.60;;;;;;5025951;28;20414;-80
2023/12/29 03:52:45;;;;;;;2.70;1.40;;;13.30;80.60;;;;;;5013937;28;20791;-79
2023/12/29 03:55:11;;;;;;;2.67;1.30;;;13.30;80.60;;;;;;5030882;28;20484;-79
2023/12/29 03:57:40;;;;;;;3.67;1.50;;;13.30;80.60;;;;;;5031980;28;20044;-79
2023/12/29 04:00:08;;;;;;;2.28;1.20;;;13.30;80.60;;;;;;5024799;28;20509;-79
2023/12/29 04:02:41;;;;;;;2.05;1.13;;;13.30;81.20;;;;;;5010706;28;20113;-79
2023/12/29 04:05:08;;;;;;;1.42;1.13;;;13.30;80.60;;;;;;5024231;28;20029;-79
2023/12/29 04:07:34;;;;;;;2.08;1.40;;;13.30;80.60;;;;;;5027401;28;20036;-80
2023/12/29 04:10:00;;;;;;;2.63;1.50;;;13.30;80.60;;;;;;5017822;28;20037;-79
2023/12/29 04:12:25;;;;;;;2.72;1.35;;;13.30;80.60;;;;;;5030851;28;20055;-79
2023/12/29 04:14:51;;;;;;;3.17;1.33;;;13.30;80.60;;;;;;5021796;28;20029;-79
2023/12/29 04:17:17;;;;;;;3.17;1.42;;;13.30;80.70;;;;;;5045223;28;20038;-80
2023/12/29 04:19:43;;;;;;;2.25;1.20;;;13.30;80.60;;;;;;5007971;28;20029;-80
2023/12/29 04:22:09;;;;;;;2.38;1.45;;;13.30;80.60;;;;;;5032533;28;20078;-79
2023/12/29 04:24:37;;;;;;;3.20;1.50;;;13.30;80.60;;;;;;5009067;28;20560;-79
2023/12/29 04:27:03;;;;;;;3.42;1.40;;;13.30;80.60;;;;;;5032369;28;20033;-79
2023/12/29 04:29:29;;;;;;;4.18;1.30;;;13.30;80.70;;;;;;5039941;28;20490;-80
2023/12/29 04:31:55;;;;;;;2.47;1.33;;;13.30;80.70;;;;;;5014128;28;20093;-79
2023/12/29 04:34:20;;;;;;;3.72;1.35;;;13.30;80.60;;;;;;5024345;28;20056;-79
2023/12/29 04:36:47;;;;;;;2.53;1.40;;;13.30;80.70;;;;;;5009494;28;20060;-79
2023/12/29 04:39:15;;;;;;;2.22;1.20;;;13.30;80.70;;;;;;5023891;28;20051;-79
2023/12/29 04:41:44;;;;;;;5.22;1.80;;;13.30;80.60;;;;;;5044162;28;20152;-80
2023/12/29 04:44:10;;;;;;;3.17;1.38;;;13.30;80.60;;;;;;5042923;28;20116;-79
2023/12/29 04:46:35;;;;;;;4.93;1.38;;;13.30;80.60;;;;;;5027795;28;20520;-79
2023/12/29 04:49:02;;;;;;;4.47;1.30;;;13.30;80.60;;;;;;5024444;28;20422;-79
2023/12/29 04:51:28;;;;;;;2.92;1.42;;;13.30;80.60;;;;;;5032806;28;20493;-79
2023/12/29 04:53:54;;;;;;;5.13;1.70;;;13.30;80.60;;;;;;5011813;28;20123;-79
2023/12/29 04:56:19;;;;;;;3.78;1.33;;;13.30;80.60;;;;;;5040992;28;20476;-79
2023/12/29 04:58:45;;;;;;;2.67;1.58;;;13.30;80.60;;;;;;5005770;28;20123;-79
2023/12/29 05:01:11;;;;;;;2.33;1.38;;;13.30;80.60;;;;;;5009121;28;20037;-79
2023/12/29 05:03:36;;;;;;;2.75;1.30;;;13.30;80.50;;;;;;5040929;28;20102;-79
2023/12/29 05:06:02;;;;;;;3.88;1.50;;;13.30;80.50;;;;;;5009112;28;20104;-78
2023/12/29 05:08:28;;;;;;;3.00;1.55;;;13.30;80.50;;;;;;5010150;28;20036;-79
2023/12/29 05:10:55;;;;;;;2.53;1.33;;;13.30;80.60;;;;;;5026289;28;20034;-79
2023/12/29 05:13:21;;;;;;;3.30;1.30;;;13.30;80.60;;;;;;5025319;28;20116;-79
2023/12/29 05:15:46;;;;;;;3.47;1.50;;;13.30;80.60;;;;;;5030461;28;20116;-79
2023/12/29 05:18:12;;;;;;;2.75;1.42;;;13.20;80.50;;;;;;5029533;28;20044;-79
2023/12/29 05:20:41;;;;;;;3.40;1.60;;;13.30;80.50;;;;;;5031705;28;20036;-79
2023/12/29 05:23:07;;;;;;;3.35;1.33;;;13.30;80.50;;;;;;5014525;28;20491;-79
2023/12/29 05:25:33;;;;;;;4.50;1.40;;;13.30;80.50;;;;;;5024869;28;20132;-79
2023/12/29 05:27:59;;;;;;;3.08;1.60;;;13.30;80.50;;;;;;5028874;28;20082;-80
2023/12/29 05:30:26;;;;;;;3.33;1.50;;;13.20;80.50;;;;;;5026802;28;20040;-79
2023/12/29 05:32:52;;;;;;;3.40;1.73;;;13.20;80.50;;;;;;5023998;28;20124;-79
2023/12/29 05:35:18;;;;;;;3.70;1.58;;;13.30;80.50;;;;;;5030612;28;20116;-79
2023/12/29 05:37:43;;;;;;;2.45;1.45;;;13.20;80.40;;;;;;5024739;28;20492;-79
2023/12/29 05:40:10;;;;;;;3.95;1.67;;;13.20;80.50;;;;;;5022979;28;20036;-79
2023/12/29 05:42:35;;;;;;;3.63;1.55;;;13.30;80.60;;;;;;5010953;28;20089;-78
2023/12/29 05:45:01;;;;;;;4.97;1.63;;;13.20;80.50;;;;;;5024981;28;20446;-79
2023/12/29 05:47:27;;;;;;;2.83;1.50;;;13.20;80.50;;;;;;4989998;28;20029;-78
2023/12/29 05:49:54;;;;;;;4.93;1.60;;;13.20;80.50;;;;;;5018792;28;20053;-78
2023/12/29 05:52:20;;;;;;;3.00;1.40;;;13.20;80.50;;;;;;5005706;28;20370;-78
2023/12/29 05:54:46;;;;;;;3.35;1.70;;;13.20;80.50;;;;;;5025450;28;20057;-78
2023/12/29 05:57:12;;;;;;;4.75;1.60;;;13.20;80.60;;;;;;5041712;28;20426;-78
2023/12/29 05:59:38;;;;;;;3.30;1.65;;;13.20;80.60;;;;;;5024185;28;20493;-78
2023/12/29 06:02:03;;;;;;;4.53;1.90;;;13.20;80.60;;;;;;5012506;28;20095;-77
2023/12/29 06:04:29;;;;;;;3.42;1.63;;;13.20;80.50;;;;;;5037456;28;20083;-78
2023/12/29 06:06:55;;;;;;;4.25;1.70;;;13.20;80.50;;;;;;5032354;28;20041;-79
2023/12/29 06:09:21;;;;;;;3.33;1.33;;;13.20;80.50;;;;;;5022721;28;20186;-79
2023/12/29 06:11:47;;;;;;;2.70;1.30;;;13.20;81.10;;;;;;5028403;28;20029;-79
2023/12/29 06:14:12;;;;;;;2.42;1.30;;;13.20;80.50;;;;;;5038349;28;20121;-78
2023/12/29 06:16:41;;;;;;;3.10;1.52;;;13.20;80.50;;;;;;5038640;28;20044;-78
2023/12/29 06:19:11;;;;;;;4.07;1.65;;;13.20;80.50;;;;;;5025277;28;20070;-78
2023/12/29 06:21:43;;;;;;;4.65;1.60;;;13.20;80.50;;;;;;5031464;28;20033;-79
2023/12/29 06:24:11;;;;;;;2.45;1.25;;;13.20;80.60;;;;;;5041452;28;20490;-80
2023/12/29 06:26:41;;;;;;;4.72;1.50;;;13.20;80.60;;;;;;5019289;28;20037;-78
2023/12/29 06:29:08;;;;;;;2.20;1.20;;;13.20;80.60;;;;;;5044215;28;20117;-79
2023/12/29 06:31:41;;;;;;;4.75;1.40;;;13.20;80.70;;;;;;5023242;28;20044;-78
2023/12/29 06:34:07;;;;;;;2.97;1.60;;;13.20;80.60;;;;;;5030449;28;20124;-78
2023/12/29 06:36:32;;;;;;;4.15;1.40;;;13.20;80.60;;;;;;5028350;28;20097;-78
2023/12/29 06:38:58;;;;;;;3.08;1.40;;;13.20;80.60;;;;;;5026680;28;20052;-78
2023/12/29 06:41:24;;;;;;;3.47;1.55;;;13.10;80.60;;;;;;4984742;28;20037;-78
2023/12/29 06:43:50;;;;;;;4.15;1.60;;;13.20;80.60;;;;;;4993178;28;20037;-77
2023/12/29 06:46:16;;;;;;;3.63;1.73;;;13.20;80.60;;;;;;5028706;28;20020;-78
2023/12/29 06:48:42;;;;;;;7.82;1.70;;;13.10;80.60;;;;;;5013733;28;20032;-78
2023/12/29 06:51:09;;;;;;;3.13;1.65;;;13.10;80.50;;;;;;5040450;28;20381;-78
2023/12/29 06:53:35;;;;;;;2.50;1.40;;;13.20;80.60;;;;;;5029563;28;20057;-78
2023/12/29 06:56:01;;;;;;;3.67;1.73;;;13.10;80.60;;;;;;5014688;28;20037;-78
2023/12/29 06:58:27;;;;;;;1.52;1.05;;;13.10;80.60;;;;;;5038205;28;20034;-78
2023/12/29 07:00:53;;;;;;;3.13;1.20;;;13.10;80.60;;;;;;5041944;28;20034;-78
2023/12/29 07:03:19;;;;;;;2.80;1.45;;;13.10;80.60;;;;;;5042643;28;20533;-78
2023/12/29 07:05:44;;;;;;;2.42;1.45;;;13.10;80.60;;;;;;5014502;28;20091;-79
2023/12/29 07:08:14;;;;;;;2.78;1.23;;;13.10;80.60;;;;;;5025509;28;20496;-78
2023/12/29 07:10:40;;;;;;;2.88;1.25;;;13.10;80.60;;;;;;5025014;28;20021;-78
2023/12/29 07:13:06;;;;;;;2.88;1.42;;;13.10;80.60;;;;;;5046864;28;20025;-78
2023/12/29 07:15:31;;;;;;;1.98;1.30;;;13.10;80.60;;;;;;5031419;28;20033;-78
2023/12/29 07:17:57;;;;;;;3.72;1.50;;;13.10;80.60;;;;;;4993665;28;20068;-78
2023/12/29 07:20:23;;;;;;;2.75;1.50;;;13.10;80.60;;;;;;5030360;28;20044;-78
2023/12/29 07:22:49;;;;;;;3.17;1.25;;;13.10;80.60;;;;;;5021901;28;20026;-78
2023/12/29 07:25:14;;;;;;;2.15;1.20;;;13.10;80.70;;;;;;4996776;28;20029;-78
2023/12/29 07:27:40;;;;;;;1.63;1.25;;;13.10;80.60;;;;;;5027192;28;20402;-80
2023/12/29 07:30:07;;;;;;;2.25;1.30;;;13.10;80.60;;;;;;5033354;28;20136;-78
2023/12/29 07:32:32;;;;;;;3.95;1.50;;;13.10;80.70;;;;;;5016694;28;20467;-78
2023/12/29 07:34:58;;;;;;;2.20;1.48;;;13.10;81.30;;;;;;5028409;28;20120;-78
2023/12/29 07:37:24;;;;;;;3.60;1.30;;;13.00;80.60;;;;;;4993700;28;20029;-79
2023/12/29 07:39:50;;;;;;;2.50;1.30;;;13.10;80.70;;;;;;5007472;28;20041;-78
2023/12/29 07:42:17;;;;;;;2.50;1.17;;;13.10;80.70;;;;;;5011856;28;20063;-78
2023/12/29 07:44:43;;;;;;;2.63;1.23;;;13.10;80.70;;;;;;5013680;28;20029;-78
2023/12/29 07:47:12;;;;;;;2.38;1.60;;;13.00;80.70;;;;;;5018113;28;20029;-78
2023/12/29 07:49:37;;;;;;;3.05;1.73;;;13.10;80.80;;;;;;5047972;28;20392;-78
2023/12/29 07:52:03;;;;;;;2.90;1.20;;;13.00;80.70;;;;;;5008331;28;20021;-79
2023/12/29 07:54:29;;;;;;;1.00;1.00;;;13.00;80.80;;;;;;5031556;28;20045;-78
2023/12/29 07:56:55;;;;;;;1.50;1.40;;;13.00;80.80;;;;;;5034268;28;20033;-78
2023/12/29 07:59:21;;;;;;;2.15;1.20;;;13.00;80.80;;;;;;5031916;28;20477;-78
2023/12/29 08:01:46;;;;;;;2.25;1.30;;;13.00;80.80;;;;;;4997667;28;20029;-79
2023/12/29 08:04:12;;;;;;;1.55;1.30;;;13.00;80.80;;;;;;5029897;28;20029;-78
2023/12/29 08:06:38;;;;;;;2.30;1.30;;;13.00;80.90;;;;;;5032696;28;20037;-78
2023/12/29 08:09:06;;;;;;;2.50;1.50;;;13.00;80.90;;;;;;5033793;28;20033;-78
2023/12/29 08:11:32;;;;;;;2.00;1.38;;;13.00;80.80;;;;;;5052861;28;20033;-78
2023/12/29 08:13:58;;;;;;;1.20;1.05;;;13.00;80.90;;;;;;5030677;28;20044;-78
2023/12/29 08:16:24;;;;;;;1.55;1.38;;;13.00;80.80;;;;;;5028644;28;20032;-78
2023/12/29 08:18:50;;;;;;;2.05;1.42;;;13.00;80.80;;;;;;5031661;28;20029;-78
2023/12/29 08:21:22;;;;;;;1.67;1.25;;;13.00;80.80;;;;;;5023468;28;20040;-78
2023/12/29 08:23:48;;;;;;;1.85;1.20;;;13.00;80.90;;;;;;5010027;28;20033;-77
2023/12/29 08:26:14;;;;;;;2.45;1.40;;;12.90;80.80;;;;;;5034621;28;20671;-78
2023/12/29 08:28:40;;;;;;;2.92;1.30;;;12.90;80.80;;;;;;5027350;28;20048;-78
2023/12/29 08:31:07;;;;;;;1.58;1.20;;;12.90;80.80;;;;;;5024439;28;20025;-79
2023/12/29 08:33:33;;;;;;;2.60;1.20;;;12.90;80.90;;;;;;5034621;28;20044;-77
2023/12/29 08:36:01;;;;;;;2.42;1.20;;;12.90;80.90;;;;;;5031250;28;20500;-80
2023/12/29 08:38:27;;;;;;;2.78;1.40;;;13.00;80.90;;;;;;5012010;28;20033;-79
2023/12/29 08:40:53;;;;;;;1.60;1.10;;;12.90;80.80;;;;;;5025943;28;20038;-78
2023/12/29 08:43:21;;;;;;;2.03;1.40;;;12.90;80.90;;;;;;5019089;28;20041;-78
2023/12/29 08:45:49;;;;;;;2.38;1.35;;;12.90;80.90;;;;;;5009073;28;20029;-78
2023/12/29 08:48:15;;;;;;;2.08;1.30;;;12.90;80.90;;;;;;5022570;28;20045;-78
2023/12/29 08:50:42;;;;;;;2.33;1.20;;;12.90;80.90;;;;;;4992680;28;20051;-78
2023/12/29 08:53:09;;;;;;;2.40;1.27;;;12.90;80.80;;;;;;5008649;28;20049;-77
2023/12/29 08:55:35;;;;;;;1.75;1.23;;;12.90;80.80;;;;;;5030785;28;20098;-77
2023/12/29 08:58:01;;;;;;;2.60;1.13;;;12.90;80.80;;;;;;5018369;28;20502;-77
2023/12/29 09:00:28;;;;;;;2.40;1.33;;;12.90;80.80;;;;;;5027168;28;20520;-77
2023/12/29 09:02:54;;;;;;;1.80;1.25;;;12.90;80.80;;;;;;5023230;28;20029;-77
2023/12/29 09:05:20;;;;;;;1.80;1.30;;;13.00;80.90;;;;;;5046607;28;20026;-77
2023/12/29 09:07:46;;;;;;;2.78;1.38;;;12.90;80.80;;;;;;5030005;28;20398;-78
2023/12/29 09:10:12;;;;;;;1.38;1.27;;;12.90;80.80;;;;;;4997735;28;20489;-78
2023/12/29 09:12:39;;;;;;;1.88;1.30;;;12.90;80.80;;;;;;5031414;28;20480;-78
2023/12/29 09:15:06;;;;;;;2.15;1.27;;;13.00;80.90;;;;;;5026348;28;20045;-78
2023/12/29 09:17:31;;;;;;;1.52;1.20;;;12.90;80.90;;;;;;5046343;28;20030;-76
2023/12/29 09:19:57;;;;;;;2.03;1.30;;;12.90;80.80;;;;;;5031351;28;20075;-76
2023/12/29 09:22:23;;;;;;;2.03;1.10;;;12.90;80.90;;;;;;5002603;28;20025;-78
2023/12/29 09:24:49;;;;;;;1.65;1.30;;;12.90;80.90;;;;;;5066195;28;20478;-79
2023/12/29 09:27:14;;;;;;;1.90;1.35;;;12.90;80.80;;;;;;5014954;28;20127;-82
2023/12/29 09:29:41;;;;;;;2.00;1.40;;;12.90;80.80;;;;;;5043475;28;20036;-82
2023/12/29 09:32:07;;;;;;;2.90;1.70;;;12.90;81.00;;;;;;5041147;28;20039;-77
2023/12/29 09:34:32;;;;;;;3.58;1.83;;;12.90;81.00;;;;;;5022111;28;20116;-77
2023/12/29 09:36:58;;;;;;;3.08;1.67;;;12.90;81.00;;;;;;5005923;28;20513;-78
2023/12/29 09:39:24;;;;;;;1.75;1.60;;;12.90;80.90;;;;;;5025838;28;20039;-77
2023/12/29 09:41:52;;;;;;;2.55;1.77;;;13.00;80.90;;;;;;5024485;28;20029;-77
2023/12/29 09:44:21;;;;;;;3.50;1.90;;;12.90;80.80;;;;;;5025479;28;20108;-78
2023/12/29 09:46:53;;;;;;;3.75;1.90;;;13.00;80.80;;;;;;5039586;28;20033;-78
2023/12/29 09:49:19;;;;;;;2.63;1.40;;;13.00;80.80;;;;;;5006747;28;20032;-78
2023/12/29 09:51:46;;;;;;;2.28;1.70;;;13.00;80.80;;;;;;5041577;28;20040;-78
2023/12/29 09:54:13;;;;;;;2.00;1.70;;;13.00;80.70;;;;;;5026298;28;20049;-77
2023/12/29 09:56:39;;;;;;;3.47;1.90;;;12.90;80.70;;;;;;5008788;28;20087;-77
2023/12/29 09:59:08;;;;;;;1.88;1.70;;;13.00;80.80;;;;;;5022313;28;20424;-77
2023/12/29 10:01:34;;;;;;;3.30;1.67;;;13.00;80.70;;;;;;5042215;28;20033;-77
2023/12/29 10:04:01;;;;;;;3.33;1.52;;;13.00;80.70;;;;;;5007066;28;20250;-77
2023/12/29 10:06:31;;;;;;;2.30;1.75;;;13.00;80.70;;;;;;4990567;28;20041;-77
2023/12/29 10:08:58;;;;;;;1.80;1.52;;;13.00;80.70;;;;;;5025929;28;20446;-79
2023/12/29 10:11:26;;;;;;;1.50;1.30;;;13.00;80.70;;;;;;5042296;28;20110;-78
2023/12/29 10:13:56;;;;;;;2.15;1.27;;;13.00;80.70;;;;;;5042155;28;20056;-79
2023/12/29 10:16:35;;;;;;;1.70;1.33;;;13.00;80.70;;;;;;5026472;28;20082;-77
2023/12/29 10:19:11;;;;;;;1.92;1.40;;;13.00;80.70;;;;;;5023461;28;20865;-79
2023/12/29 10:22:03;;;;;;;2.83;1.20;;;13.00;80.70;;;;;;5027639;28;20262;-78
2023/12/29 10:24:29;;;;;;;2.13;1.33;;;13.00;80.70;;;;;;5041613;28;20024;-78
2023/12/29 10:26:55;;;;;;;1.48;1.33;;;13.00;80.70;;;;;;5008055;28;20029;-78
2023/12/29 10:29:22;;;;;;;1.30;1.20;;;13.00;80.70;;;;;;5026883;28;20033;-78
2023/12/29 10:31:47;;;;;;;1.52;1.35;;;13.00;80.70;;;;;;4991597;28;20051;-78
2023/12/29 10:34:28;;;;;;;1.45;1.30;;;13.00;80.70;;;;;;5032809;28;20033;-79
2023/12/29 10:37:04;;;;;;;1.25;1.17;;;13.00;80.70;;;;;;5022716;28;20083;-78
2023/12/29 10:39:37;;;;;;;3.22;1.38;;;13.00;80.70;;;;;;5041251;28;20537;-78
2023/12/29 10:42:08;;;;;;;1.77;1.50;;;13.00;80.70;;;;;;5011433;28;20033;-78
2023/12/29 10:44:35;;;;;;;1.83;1.30;;;13.00;80.70;;;;;;5045480;28;20543;-78
2023/12/29 10:47:11;;;;;;;1.55;1.30;;;13.00;80.70;;;;;;4994165;28;20041;-78
2023/12/29 10:49:37;;;;;;;1.55;1.27;;;13.10;80.80;;;;;;5027211;28;20424;-78
2023/12/29 10:52:16;;;;;;;2.17;1.23;;;13.00;80.70;;;;;;5028229;28;20029;-78
2023/12/29 10:54:43;;;;;;;1.30;1.20;;;13.10;80.80;;;;;;5023240;28;20073;-77
2023/12/29 10:57:11;;;;;;;2.50;1.50;;;13.10;80.70;;;;;;5034290;28;20549;-78
2023/12/29 10:59:38;;;;;;;1.40;1.30;;;13.10;80.70;;;;;;5042227;28;20488;-77
2023/12/29 11:02:04;;;;;;;2.55;1.33;;;13.10;80.80;;;;;;5046323;28;20087;-78
2023/12/29 11:04:30;;;;;;;1.27;1.17;;;13.10;80.70;;;;;;5039746;28;20032;-78
2023/12/29 11:06:56;;;;;;;1.30;1.20;;;13.10;80.80;;;;;;5023754;28;20080;-78
2023/12/29 11:09:33;;;;;;;1.15;1.15;;;13.10;80.70;;;;;;5042647;28;20501;-77
2023/12/29 11:12:02;;;;;;;1.10;1.10;;;13.10;80.80;;;;;;5020769;28;20104;-78
2023/12/29 11:14:28;;;;;;;1.10;1.10;;;13.10;80.70;;;;;;5039300;28;20091;-76
2023/12/29 11:16:55;;;;;;;1.10;1.10;;;13.10;80.70;;;;;;5029173;28;20086;-78
2023/12/29 11:19:21;;;;;;;1.20;1.10;;;13.20;80.80;;;;;;5019164;28;20116;-77
2023/12/29 11:21:51;;;;;;;1.20;1.13;;;13.10;80.70;;;;;;5022197;28;20029;-77
2023/12/29 11:24:17;;;;;;;1.40;1.30;;;13.20;81.40;;;;;;5039134;28;20032;-77
2023/12/29 11:26:44;;;;;;;1.17;1.08;;;13.20;80.70;;;;;;5005969;28;20033;-77
2023/12/29 11:29:11;;;;;;;1.38;1.23;;;13.20;80.70;;;;;;5026268;28;20079;-77
2023/12/29 11:31:41;;;;;;;1.70;1.23;;;13.20;80.70;;;;;;5035245;28;20036;-77
2023/12/29 11:34:19;;;;;;;1.50;1.10;;;13.20;80.70;;;;;;5010690;28;20032;-77
2023/12/29 11:36:47;;;;;;;1.40;1.30;;;13.20;80.70;;;;;;5026301;28;20111;-77
2023/12/29 11:39:33;;;;;;;1.98;1.30;;;13.20;80.70;;;;;;5026966;28;20029;-77
2023/12/29 11:42:21;;;;;;;1.48;1.20;;;13.20;80.70;;;;;;5027227;28;20025;-77
2023/12/29 11:44:48;;;;;;;1.25;1.15;;;13.30;80.70;;;;;;5040756;28;20108;-77
2023/12/29 11:47:37;;;;;;;2.22;1.30;;;13.30;80.70;;;;;;5043339;28;20418;-76
2023/12/29 11:50:04;;;;;;;2.45;1.20;;;13.30;80.80;;;;;;5041308;28;20033;-78
2023/12/29 11:52:34;;;;;;;1.77;1.20;;;13.30;80.70;;;;;;5017665;28;20167;-79
2023/12/29 11:55:19;;;;;;;2.33;1.20;;;13.30;80.70;;;;;;5006727;28;20496;-78
2023/12/29 11:57:45;;;;;;;1.02;1.02;;;13.30;80.80;;;;;;5046668;28;20037;-78
2023/12/29 12:00:11;;;;;;;2.10;1.30;;;13.30;80.70;;;;;;5031418;28;20072;-78
2023/12/29 12:02:38;;;;;;;1.40;1.20;;;13.30;80.70;;;;;;5036131;28;20175;-79
2023/12/29 12:05:04;;;;;;;1.38;1.27;;;13.30;80.70;;;;;;5045449;28;20033;-79
2023/12/29 12:07:33;;;;;;;1.67;1.30;;;13.30;80.70;;;;;;5019370;28;20068;-78
2023/12/29 12:10:20;;;;;;;1.40;1.17;;;13.30;80.70;;;;;;5050694;28;20028;-79
2023/12/29 12:12:48;;;;;;;1.20;1.10;;;13.30;80.70;;;;;;5026002;28;20032;-79
2023/12/29 12:15:29;;;;;;;1.08;1.08;;;13.40;80.70;;;;;;5042060;28;20485;-78
2023/12/29 12:17:56;;;;;;;2.03;1.40;;;13.40;80.80;;;;;;5043211;28;20037;-79
2023/12/29 12:20:22;;;;;;;1.15;1.05;;;13.40;80.70;;;;;;5043612;28;20061;-79
2023/12/29 12:22:57;;;;;;;1.70;1.10;;;13.40;80.70;;;;;;5044388;28;20033;-78
2023/12/29 12:25:27;;;;;;;1.85;1.17;;;13.40;80.70;;;;;;5027922;28;20029;-78
2023/12/29 12:27:54;;;;;;;1.50;1.20;;;13.40;80.70;;;;;;5034493;28;20025;-78
2023/12/29 12:30:20;;;;;;;1.85;1.08;;;13.40;80.70;;;;;;5028210;28;20481;-78
2023/12/29 12:32:47;;;;;;;1.30;1.02;;;13.40;80.70;;;;;;5031664;28;20490;-79
2023/12/29 12:35:16;;;;;;;3.03;1.38;;;13.40;80.70;;;;;;5035107;28;20587;-79
2023/12/29 12:37:42;;;;;;;1.88;1.40;;;13.40;80.70;;;;;;5043007;28;20030;-79
2023/12/29 12:40:08;;;;;;;2.40;1.20;;;13.50;80.70;;;;;;5021799;28;20087;-78
2023/12/29 12:42:41;;;;;;;1.13;1.10;;;13.50;80.70;;;;;;5044576;28;20029;-78
2023/12/29 12:45:20;;;;;;;1.73;1.25;;;13.50;80.70;;;;;;5047400;28;20033;-79
2023/12/29 12:47:52;;;;;;;2.35;1.30;;;13.50;80.80;;;;;;5066090;28;20037;-79
2023/12/29 12:50:18;;;;;;;1.30;1.20;;;13.50;80.70;;;;;;5034254;28;20021;-77